Time;durP1;ratioP1;P1;durP2;ratioP2;P2;SDS_P1;SDS_P2;PMS_P1;PMS_P2;Temp;Humidity;BMP_temperature;BMP_pressure;BME280_temperature;BME280_humidity;BME280_pressure;Samples;Min_cycle;Max_cycle;Signal;HPM_P1;HPM_P2
2022/02/21 00:03:02;;;;;;;2.38;0.93;;;17.80;65.20;;;;;;10424535;28;20036;-59
2022/02/21 00:08:03;;;;;;;1.33;0.82;;;17.70;65.20;;;;;;10418543;28;20108;-58
2022/02/21 00:13:04;;;;;;;1.60;0.75;;;17.70;65.30;;;;;;10412027;28;20033;-59
2022/02/21 00:18:05;;;;;;;1.65;0.90;;;17.80;65.10;;;;;;10418114;28;20571;-58
2022/02/21 00:23:07;;;;;;;2.53;1.05;;;17.80;65.20;;;;;;10417699;28;20117;-58
2022/02/21 00:28:08;;;;;;;2.20;0.90;;;17.80;65.10;;;;;;10417378;28;20034;-59
2022/02/21 00:33:09;;;;;;;2.10;0.77;;;17.70;65.10;;;;;;10420919;28;20367;-58
2022/02/21 00:38:09;;;;;;;2.75;0.88;;;17.70;65.20;;;;;;10433866;28;20442;-58
2022/02/21 00:43:10;;;;;;;2.47;0.90;;;17.70;65.00;;;;;;10416361;28;20462;-58
2022/02/21 00:48:11;;;;;;;1.00;0.50;;;17.80;64.80;;;;;;10428267;28;20064;-58
2022/02/21 00:53:12;;;;;;;2.45;0.75;;;17.80;64.70;;;;;;10431879;28;20112;-57
2022/02/21 00:58:13;;;;;;;0.93;0.70;;;17.80;64.70;;;;;;10416445;28;20056;-58
2022/02/21 01:03:14;;;;;;;2.83;0.60;;;17.80;64.80;;;;;;10416144;28;20117;-58
2022/02/21 01:08:15;;;;;;;2.50;0.90;;;17.70;64.80;;;;;;10414556;28;20103;-59
2022/02/21 01:13:16;;;;;;;1.98;0.90;;;17.80;64.80;;;;;;10410536;28;20033;-58
2022/02/21 01:18:17;;;;;;;1.23;0.98;;;17.80;64.70;;;;;;10417218;28;20029;-58
2022/02/21 01:23:17;;;;;;;2.03;0.60;;;17.90;64.50;;;;;;10416485;28;20120;-58
2022/02/21 01:28:18;;;;;;;2.30;0.90;;;17.90;64.30;;;;;;10392646;28;20032;-59
2022/02/21 01:33:20;;;;;;;1.45;0.70;;;17.80;64.30;;;;;;10417575;28;20053;-58
2022/02/21 01:38:20;;;;;;;1.50;0.50;;;17.80;64.40;;;;;;10416034;28;20026;-58
2022/02/21 01:43:21;;;;;;;2.30;0.60;;;17.80;64.40;;;;;;10414326;28;20037;-59
2022/02/21 01:48:22;;;;;;;2.45;0.70;;;17.80;64.40;;;;;;10415773;28;20446;-58
2022/02/21 01:53:22;;;;;;;1.88;0.63;;;17.90;64.10;;;;;;10415485;28;20474;-58
2022/02/21 01:58:23;;;;;;;1.60;0.47;;;17.80;64.10;;;;;;10414378;28;20037;-58
2022/02/21 02:03:24;;;;;;;1.90;0.65;;;17.80;64.20;;;;;;10413302;28;20026;-59
2022/02/21 02:08:25;;;;;;;2.17;0.60;;;17.80;64.10;;;;;;10414971;28;20104;-58
2022/02/21 02:13:25;;;;;;;1.67;0.70;;;17.90;64.00;;;;;;10409282;28;20037;-57
2022/02/21 02:18:26;;;;;;;1.63;0.90;;;17.80;64.00;;;;;;10429684;28;20029;-59
2022/02/21 02:23:27;;;;;;;1.70;0.82;;;17.80;64.20;;;;;;10412882;28;20132;-58
2022/02/21 02:28:28;;;;;;;3.08;0.90;;;17.80;64.00;;;;;;10429697;28;20071;-59
2022/02/21 02:33:28;;;;;;;2.10;0.85;;;17.80;64.10;;;;;;10416164;28;20045;-58
2022/02/21 02:38:29;;;;;;;1.92;0.65;;;17.80;64.10;;;;;;10412581;28;20040;-58
2022/02/21 02:43:30;;;;;;;2.08;0.60;;;17.90;63.80;;;;;;10415808;28;20116;-58
2022/02/21 02:48:32;;;;;;;1.30;0.50;;;17.90;63.80;;;;;;10412668;28;20116;-58
2022/02/21 02:53:33;;;;;;;1.65;0.40;;;17.80;63.80;;;;;;10403899;28;20107;-58
2022/02/21 02:58:34;;;;;;;1.10;0.57;;;17.80;63.80;;;;;;10413457;28;20524;-59
2022/02/21 03:03:34;;;;;;;1.17;0.50;;;17.90;63.60;;;;;;10385175;28;20136;-59
2022/02/21 03:08:35;;;;;;;1.83;0.57;;;17.80;63.70;;;;;;10412131;28;20053;-59
2022/02/21 03:13:36;;;;;;;3.13;0.75;;;17.80;63.60;;;;;;10414702;28;20026;-58
2022/02/21 03:18:36;;;;;;;2.38;0.95;;;17.80;63.70;;;;;;10407025;28;20034;-58
2022/02/21 03:23:37;;;;;;;2.03;0.73;;;17.80;63.50;;;;;;10419783;28;20140;-59
2022/02/21 03:28:38;;;;;;;1.92;0.70;;;17.80;63.60;;;;;;10406989;28;20037;-59
2022/02/21 03:33:39;;;;;;;1.35;0.68;;;17.80;63.60;;;;;;10420534;28;20045;-58
2022/02/21 03:38:39;;;;;;;0.73;0.52;;;17.90;63.60;;;;;;10423082;28;20116;-58
2022/02/21 03:43:40;;;;;;;1.77;0.50;;;17.80;63.60;;;;;;10418764;28;20037;-59
2022/02/21 03:48:41;;;;;;;1.88;0.60;;;17.90;63.30;;;;;;10435920;28;20108;-58
2022/02/21 03:53:41;;;;;;;1.35;0.60;;;17.80;63.40;;;;;;10418653;28;20164;-59
2022/02/21 03:58:43;;;;;;;1.95;0.80;;;17.70;63.50;;;;;;10418826;28;20073;-58
2022/02/21 04:03:44;;;;;;;0.90;0.40;;;17.90;63.50;;;;;;10418814;28;20025;-59
2022/02/21 04:08:44;;;;;;;2.08;1.02;;;17.80;63.30;;;;;;10401680;28;20112;-59
2022/02/21 04:13:45;;;;;;;1.75;0.75;;;17.80;63.30;;;;;;10419242;28;20036;-59
2022/02/21 04:18:46;;;;;;;3.13;0.88;;;17.90;63.20;;;;;;10418130;28;20029;-58
2022/02/21 04:23:46;;;;;;;1.77;0.90;;;17.80;63.30;;;;;;10417820;28;20030;-59
2022/02/21 04:28:47;;;;;;;1.25;0.57;;;17.80;63.40;;;;;;10418561;28;20447;-58
2022/02/21 04:33:48;;;;;;;2.38;0.98;;;17.80;63.40;;;;;;10420907;28;20417;-59
2022/02/21 04:38:49;;;;;;;1.58;0.60;;;17.80;63.30;;;;;;10391004;28;20101;-58
2022/02/21 04:43:53;;;;;;;1.48;0.50;;;17.80;63.40;;;;;;10405509;28;20053;-58
2022/02/21 04:48:54;;;;;;;2.47;0.73;;;17.80;63.30;;;;;;10417399;28;20521;-58
2022/02/21 04:53:55;;;;;;;1.35;0.93;;;17.80;63.20;;;;;;10416618;28;20037;-63
2022/02/21 04:58:56;;;;;;;1.13;0.57;;;17.70;63.30;;;;;;10421954;28;20056;-59
2022/02/21 05:03:56;;;;;;;1.27;0.50;;;17.80;63.20;;;;;;10423218;28;20083;-59
2022/02/21 05:08:58;;;;;;;1.27;0.60;;;17.80;63.20;;;;;;10416348;28;20116;-59
2022/02/21 05:13:58;;;;;;;2.42;0.55;;;17.80;63.10;;;;;;10432180;28;20037;-59
2022/02/21 05:19:02;;;;;;;1.77;0.55;;;17.80;63.20;;;;;;10417102;28;20455;-58
2022/02/21 05:24:03;;;;;;;1.13;0.45;;;17.80;63.00;;;;;;10415302;28;20120;-59
2022/02/21 05:29:04;;;;;;;1.58;0.50;;;17.80;63.00;;;;;;10401829;28;20045;-58
2022/02/21 05:34:04;;;;;;;1.60;0.47;;;17.80;63.00;;;;;;10402304;28;20520;-58
2022/02/21 05:39:05;;;;;;;1.42;0.47;;;17.80;63.00;;;;;;10411132;28;20044;-60
2022/02/21 05:44:06;;;;;;;1.58;0.40;;;17.80;63.00;;;;;;10405287;28;20026;-58
2022/02/21 05:49:08;;;;;;;1.17;0.40;;;17.80;62.90;;;;;;10398496;28;20029;-58
2022/02/21 05:54:09;;;;;;;2.80;0.80;;;17.80;63.40;;;;;;10413098;28;20494;-58
2022/02/21 05:59:10;;;;;;;1.90;0.40;;;18.00;62.80;;;;;;10413484;28;20064;-59
2022/02/21 06:04:10;;;;;;;1.67;0.50;;;18.00;62.60;;;;;;10417369;28;20124;-59
2022/02/21 06:09:12;;;;;;;3.58;0.65;;;17.90;63.80;;;;;;10412896;28;20469;-59
2022/02/21 06:14:12;;;;;;;3.03;0.50;;;17.90;63.80;;;;;;10409063;28;20040;-59
2022/02/21 06:19:13;;;;;;;3.22;0.85;;;18.00;64.30;;;;;;10394614;28;20374;-59
2022/02/21 06:24:14;;;;;;;2.63;0.52;;;18.00;64.80;;;;;;10413126;28;20033;-59
2022/02/21 06:29:15;;;;;;;11.88;1.63;;;17.90;65.80;;;;;;10416113;28;20112;-58
2022/02/21 06:34:15;;;;;;;6.53;0.85;;;18.00;64.80;;;;;;10416478;28;20124;-58
2022/02/21 06:39:19;;;;;;;7.03;0.60;;;18.10;65.00;;;;;;10409038;28;20132;-57
2022/02/21 06:44:20;;;;;;;2.90;0.55;;;17.90;65.10;;;;;;10406928;28;20029;-57
2022/02/21 06:49:20;;;;;;;6.32;0.93;;;17.80;65.40;;;;;;10409983;28;20167;-58
2022/02/21 06:54:22;;;;;;;6.97;0.77;;;17.80;66.60;;;;;;10404391;28;20109;-57
2022/02/21 06:59:23;;;;;;;6.15;0.93;;;17.90;65.50;;;;;;10408163;28;20512;-58
2022/02/21 07:04:24;;;;;;;11.93;1.35;;;17.90;66.30;;;;;;10413019;28;20104;-55
2022/02/21 07:09:25;;;;;;;7.22;1.08;;;17.90;66.00;;;;;;10406004;28;20031;-57
2022/02/21 07:14:26;;;;;;;11.50;1.50;;;17.90;64.90;;;;;;10406189;28;20116;-57
2022/02/21 07:19:27;;;;;;;12.38;1.77;;;17.80;65.00;;;;;;10406495;28;20068;-58
2022/02/21 07:24:28;;;;;;;8.45;1.73;;;17.70;65.10;;;;;;10408396;28;20080;-58
2022/02/21 07:29:29;;;;;;;6.93;1.40;;;17.70;64.70;;;;;;10410145;28;20359;-58
2022/02/21 07:34:30;;;;;;;5.15;1.23;;;17.70;64.60;;;;;;10409233;28;20440;-59
2022/02/21 07:39:32;;;;;;;7.28;1.40;;;17.70;64.50;;;;;;10411775;28;20064;-58
2022/02/21 07:44:32;;;;;;;4.30;1.20;;;17.80;64.30;;;;;;10411162;28;20108;-58
2022/02/21 07:49:33;;;;;;;7.72;1.90;;;17.80;64.00;;;;;;10411577;28;20112;-57
2022/02/21 07:54:34;;;;;;;6.28;1.10;;;17.80;63.70;;;;;;10410371;28;20159;-57
2022/02/21 07:59:34;;;;;;;3.70;1.08;;;17.80;63.80;;;;;;10398672;28;20037;-58
2022/02/21 08:04:35;;;;;;;6.22;1.10;;;17.90;63.70;;;;;;10403217;28;20025;-58
2022/02/21 08:09:37;;;;;;;6.90;1.50;;;17.80;63.70;;;;;;10433186;28;20021;-56
2022/02/21 08:14:37;;;;;;;3.00;1.00;;;17.80;64.00;;;;;;10417455;28;20033;-58
2022/02/21 08:19:38;;;;;;;5.60;1.77;;;17.70;64.20;;;;;;10432650;28;20033;-58
2022/02/21 08:24:39;;;;;;;5.53;1.02;;;17.70;64.00;;;;;;10432916;28;20415;-58
2022/02/21 08:29:40;;;;;;;2.38;0.63;;;17.80;64.10;;;;;;10415665;28;20107;-58
2022/02/21 08:34:41;;;;;;;4.40;1.05;;;17.90;63.90;;;;;;10427179;28;20409;-58
2022/02/21 08:39:41;;;;;;;5.55;0.98;;;17.70;63.70;;;;;;10415539;28;20022;-58
2022/02/21 08:44:42;;;;;;;8.95;1.50;;;17.80;63.50;;;;;;10415861;28;20116;-58
2022/02/21 08:49:44;;;;;;;3.13;0.98;;;17.80;63.70;;;;;;10414392;28;20033;-58
2022/02/21 08:54:45;;;;;;;7.50;1.20;;;17.80;63.70;;;;;;10418110;28;20025;-59
2022/02/21 08:59:45;;;;;;;6.78;1.55;;;17.80;63.60;;;;;;10415855;28;20152;-58
2022/02/21 09:04:46;;;;;;;4.57;1.17;;;17.80;63.60;;;;;;10414495;28;20493;-58
2022/02/21 09:09:47;;;;;;;7.55;1.25;;;17.90;63.50;;;;;;10415104;28;20461;-58
2022/02/21 09:14:50;;;;;;;6.97;1.10;;;17.90;63.80;;;;;;10397538;28;20577;-58
2022/02/21 09:19:51;;;;;;;4.47;1.10;;;17.90;63.70;;;;;;10430750;28;20037;-58
2022/02/21 09:24:52;;;;;;;6.95;1.30;;;17.90;63.80;;;;;;10413033;28;20030;-58
2022/02/21 09:29:53;;;;;;;5.10;1.08;;;17.80;64.00;;;;;;10397131;28;20025;-56
2022/02/21 09:34:54;;;;;;;6.15;1.15;;;17.90;64.00;;;;;;10417806;28;20080;-58
2022/02/21 09:39:54;;;;;;;6.82;1.20;;;17.80;64.10;;;;;;10429916;28;20033;-58
2022/02/21 09:44:55;;;;;;;5.97;1.90;;;17.70;64.40;;;;;;10412207;28;20432;-57
2022/02/21 09:49:56;;;;;;;6.97;2.03;;;17.80;64.40;;;;;;10412688;28;20079;-57
2022/02/21 09:54:59;;;;;;;9.10;1.80;;;17.80;64.20;;;;;;10412464;28;20063;-59
2022/02/21 10:00:00;;;;;;;6.57;1.35;;;17.80;64.50;;;;;;10394563;28;20124;-57
2022/02/21 10:05:25;;;;;;;13.35;1.23;;;17.80;64.20;;;;;;10420849;28;20567;-58
2022/02/21 10:10:26;;;;;;;6.20;1.73;;;17.80;64.20;;;;;;10421532;28;20490;-58
2022/02/21 10:15:32;;;;;;;5.18;1.38;;;17.80;64.50;;;;;;10411579;28;20571;-57
2022/02/21 10:20:49;;;;;;;5.47;1.23;;;17.70;64.70;;;;;;10412563;28;20112;-57
2022/02/21 10:26:06;;;;;;;6.68;1.60;;;17.60;64.80;;;;;;10412286;28;20036;-57
2022/02/21 10:31:23;;;;;;;3.35;1.30;;;17.70;64.70;;;;;;10412505;28;20405;-58
2022/02/21 10:36:43;;;;;;;8.95;1.30;;;17.70;64.70;;;;;;10407763;28;20041;-57
2022/02/21 10:41:46;;;;;;;4.50;1.27;;;17.70;64.70;;;;;;10410888;28;20108;-57
2022/02/21 10:47:13;;;;;;;5.55;1.20;;;17.70;64.70;;;;;;10410945;28;20041;-57
2022/02/21 10:52:27;;;;;;;4.20;1.25;;;17.70;64.60;;;;;;10410023;28;20034;-58
2022/02/21 10:57:28;;;;;;;6.78;1.02;;;17.80;64.50;;;;;;10409960;28;20490;-57
2022/02/21 11:02:29;;;;;;;5.22;1.40;;;17.70;64.70;;;;;;10420271;28;20453;-57
2022/02/21 11:07:30;;;;;;;5.00;1.60;;;17.70;65.20;;;;;;10405966;28;20028;-58
2022/02/21 11:12:35;;;;;;;8.45;1.65;;;17.70;65.40;;;;;;10422799;28;20025;-59
2022/02/21 11:17:37;;;;;;;7.53;1.40;;;17.70;66.30;;;;;;10393297;28;20120;-58
2022/02/21 11:22:38;;;;;;;8.55;1.50;;;17.70;66.60;;;;;;10408953;28;20037;-59
2022/02/21 11:27:57;;;;;;;5.05;0.90;;;17.70;66.80;;;;;;10402772;28;20452;-58
2022/02/21 11:33:13;;;;;;;6.30;0.90;;;17.70;65.70;;;;;;10407507;28;20037;-59
2022/02/21 11:38:20;;;;;;;5.15;1.55;;;17.80;65.50;;;;;;10429842;28;20033;-58
2022/02/21 11:43:28;;;;;;;4.78;1.10;;;17.80;65.70;;;;;;10429245;28;20049;-58
2022/02/21 11:48:59;;;;;;;11.10;1.53;;;17.80;65.80;;;;;;10418436;28;20061;-59
2022/02/21 11:54:09;;;;;;;9.07;2.60;;;17.70;65.60;;;;;;10417695;28;20036;-58
2022/02/21 11:59:31;;;;;;;7.75;1.30;;;17.70;65.30;;;;;;10417549;28;20057;-59
2022/02/21 12:04:52;;;;;;;6.68;1.40;;;17.60;65.30;;;;;;10417624;28;20026;-58
2022/02/21 12:10:22;;;;;;;7.18;1.17;;;17.60;65.20;;;;;;10417152;28;20033;-58
2022/02/21 12:15:32;;;;;;;2.53;0.90;;;17.60;65.40;;;;;;10410632;28;20091;-57
2022/02/21 12:20:39;;;;;;;9.30;1.73;;;17.70;65.20;;;;;;10418527;28;20025;-56
2022/02/21 12:25:58;;;;;;;9.57;1.30;;;17.60;64.90;;;;;;10417854;28;20064;-57
2022/02/21 12:30:59;;;;;;;7.10;1.93;;;17.70;65.20;;;;;;10416875;28;20065;-55
2022/02/21 12:36:04;;;;;;;14.70;1.88;;;17.80;64.40;;;;;;10416711;28;20037;-56
2022/02/21 12:41:08;;;;;;;6.30;1.40;;;17.90;64.20;;;;;;10415211;28;20033;-56
2022/02/21 12:46:09;;;;;;;6.72;1.50;;;17.80;64.50;;;;;;10414875;28;20462;-56
2022/02/21 12:51:25;;;;;;;6.10;1.45;;;17.70;64.80;;;;;;10414884;28;20029;-57
2022/02/21 12:56:30;;;;;;;5.07;1.33;;;17.60;65.00;;;;;;10433120;28;20429;-57
2022/02/21 13:01:31;;;;;;;8.13;1.30;;;17.70;64.80;;;;;;10401735;28;20029;-56
2022/02/21 13:06:32;;;;;;;6.90;1.35;;;17.80;64.50;;;;;;10431790;28;20104;-57
2022/02/21 13:11:36;;;;;;;8.07;1.55;;;17.80;64.50;;;;;;10430387;28;20040;-57
2022/02/21 13:16:55;;;;;;;4.78;1.27;;;17.80;64.50;;;;;;10415032;28;20064;-57
2022/02/21 13:22:03;;;;;;;4.60;1.40;;;17.80;64.40;;;;;;10416110;28;20413;-56
2022/02/21 13:27:07;;;;;;;7.35;1.52;;;17.70;64.30;;;;;;10429834;28;20497;-57
2022/02/21 13:32:30;;;;;;;7.47;1.50;;;17.70;64.60;;;;;;10414287;28;20060;-56
2022/02/21 13:37:33;;;;;;;6.68;1.25;;;17.90;64.50;;;;;;10415180;28;20075;-56
2022/02/21 13:42:47;;;;;;;8.75;2.10;;;17.80;65.10;;;;;;10414490;28;20034;-57
2022/02/21 13:48:08;;;;;;;6.38;1.67;;;17.70;65.30;;;;;;10413919;28;20025;-57
2022/02/21 13:53:32;;;;;;;9.65;2.65;;;17.70;65.60;;;;;;10414612;28;20099;-57
2022/02/21 13:58:37;;;;;;;8.50;1.60;;;17.80;64.80;;;;;;10413916;28;20029;-58
2022/02/21 14:03:41;;;;;;;11.20;2.13;;;17.90;64.40;;;;;;10413044;28;20068;-57
2022/02/21 14:08:54;;;;;;;4.97;1.80;;;17.90;63.60;;;;;;10413754;28;20381;-58
2022/02/21 14:13:59;;;;;;;7.43;1.65;;;18.00;64.30;;;;;;10413899;28;20029;-58
2022/02/21 14:19:00;;;;;;;7.88;1.67;;;18.10;64.30;;;;;;10430100;28;20029;-58
2022/02/21 14:24:01;;;;;;;8.00;1.90;;;18.00;64.60;;;;;;10413591;28;20386;-58
2022/02/21 14:29:02;;;;;;;5.70;1.42;;;17.90;64.90;;;;;;10389322;28;20545;-58
2022/02/21 14:34:03;;;;;;;12.80;2.33;;;17.80;65.20;;;;;;10388516;28;20051;-59
2022/02/21 14:39:05;;;;;;;9.98;1.83;;;17.80;65.30;;;;;;10403802;28;20033;-59
2022/02/21 14:44:07;;;;;;;13.75;2.08;;;17.70;65.20;;;;;;10413836;28;20040;-58
2022/02/21 14:49:08;;;;;;;6.32;1.75;;;17.70;65.30;;;;;;10412305;28;20021;-58
2022/02/21 14:54:09;;;;;;;10.65;1.48;;;17.70;65.10;;;;;;10429153;28;20035;-59
2022/02/21 14:59:09;;;;;;;13.55;2.45;;;17.80;64.90;;;;;;10413449;28;20076;-59
2022/02/21 15:04:11;;;;;;;8.77;1.95;;;17.70;64.70;;;;;;10411910;28;20124;-59
2022/02/21 15:09:12;;;;;;;11.00;1.88;;;17.80;64.50;;;;;;10403668;28;20032;-59
2022/02/21 15:14:13;;;;;;;8.60;1.80;;;17.80;64.40;;;;;;10411098;28;20117;-58
2022/02/21 15:19:14;;;;;;;9.13;2.10;;;17.80;64.60;;;;;;10411108;28;20056;-58
2022/02/21 15:24:14;;;;;;;10.52;2.25;;;17.80;64.50;;;;;;10412507;28;20030;-58
2022/02/21 15:29:15;;;;;;;9.98;1.98;;;17.80;64.70;;;;;;10414046;28;20030;-59
2022/02/21 15:34:19;;;;;;;13.52;2.42;;;17.80;64.80;;;;;;10422888;28;20049;-58
2022/02/21 15:39:20;;;;;;;14.77;2.40;;;17.80;65.00;;;;;;10412081;28;20032;-59
2022/02/21 15:44:21;;;;;;;14.45;2.70;;;17.70;65.40;;;;;;10410799;28;20512;-60
2022/02/21 15:49:22;;;;;;;27.33;4.45;;;17.70;65.70;;;;;;10411136;28;20024;-57
2022/02/21 15:54:24;;;;;;;18.10;3.55;;;17.80;65.50;;;;;;10409499;28;20025;-57
2022/02/21 15:59:29;;;;;;;27.00;4.88;;;17.90;65.50;;;;;;10415698;28;20033;-57
2022/02/21 16:04:29;;;;;;;33.00;4.43;;;17.80;65.40;;;;;;10423300;28;20065;-57
2022/02/21 16:09:30;;;;;;;31.67;6.03;;;17.70;65.90;;;;;;10412108;28;20122;-57
2022/02/21 16:14:31;;;;;;;33.80;5.75;;;17.60;66.70;;;;;;10410540;28;20470;-57
2022/02/21 16:19:32;;;;;;;37.58;4.53;;;17.70;66.30;;;;;;10401312;28;20025;-58
2022/02/21 16:24:33;;;;;;;35.65;5.75;;;17.60;66.40;;;;;;10410568;28;20040;-58
2022/02/21 16:29:33;;;;;;;21.52;5.10;;;17.60;66.70;;;;;;10397774;28;20491;-58
2022/02/21 16:34:34;;;;;;;36.60;5.70;;;17.60;66.80;;;;;;10430838;28;20045;-56
2022/02/21 16:39:35;;;;;;;40.42;5.63;;;17.50;66.80;;;;;;10433556;28;20024;-58
2022/02/21 16:44:36;;;;;;;21.02;5.20;;;17.50;66.30;;;;;;10416778;28;20025;-58
2022/02/21 16:49:39;;;;;;;15.80;3.45;;;17.60;66.30;;;;;;10433700;28;20148;-58
2022/02/21 16:54:40;;;;;;;18.63;3.60;;;17.60;65.60;;;;;;10433319;28;20030;-58
2022/02/21 16:59:41;;;;;;;23.67;4.03;;;17.70;64.50;;;;;;10404961;28;20041;-57
2022/02/21 17:04:42;;;;;;;13.75;2.75;;;17.80;64.80;;;;;;10432307;28;20112;-57
2022/02/21 17:09:42;;;;;;;12.48;2.90;;;17.90;63.90;;;;;;10413210;28;20036;-58
2022/02/21 17:14:43;;;;;;;17.90;3.20;;;18.10;64.90;;;;;;10413970;28;20501;-59
2022/02/21 17:19:44;;;;;;;16.80;2.97;;;18.20;65.00;;;;;;10394612;28;20379;-60
2022/02/21 17:24:44;;;;;;;12.27;2.72;;;18.10;65.10;;;;;;10415874;28;20534;-59
2022/02/21 17:29:45;;;;;;;10.65;2.10;;;18.00;65.60;;;;;;10406539;28;20163;-58
2022/02/21 17:34:47;;;;;;;17.05;2.85;;;17.90;66.10;;;;;;10418535;28;20049;-57
2022/02/21 17:39:47;;;;;;;13.43;2.70;;;18.00;65.40;;;;;;10413754;28;20106;-56
2022/02/21 17:44:48;;;;;;;11.13;1.60;;;18.10;65.20;;;;;;10414170;28;20086;-57
2022/02/21 17:49:49;;;;;;;16.92;2.67;;;18.20;65.80;;;;;;10413490;28;20101;-58
2022/02/21 17:54:49;;;;;;;9.93;2.22;;;17.90;66.90;;;;;;10411383;28;20112;-58
2022/02/21 17:59:50;;;;;;;8.18;2.03;;;17.80;66.80;;;;;;10404108;28;20025;-59
2022/02/21 18:04:51;;;;;;;12.90;1.85;;;17.80;67.10;;;;;;10410654;28;20116;-58
2022/02/21 18:09:51;;;;;;;8.15;2.17;;;17.60;66.40;;;;;;10414723;28;20032;-58
2022/02/21 18:14:54;;;;;;;8.50;2.33;;;17.50;66.50;;;;;;10397217;28;20530;-59
2022/02/21 18:19:55;;;;;;;6.53;1.63;;;17.40;66.50;;;;;;10412785;28;20099;-56
2022/02/21 18:24:55;;;;;;;12.40;2.90;;;17.50;66.20;;;;;;10408929;28;20030;-57
2022/02/21 18:29:57;;;;;;;14.57;3.47;;;17.50;66.20;;;;;;10409519;28;20035;-56
2022/02/21 18:34:58;;;;;;;12.43;2.50;;;17.50;66.50;;;;;;10416861;28;20053;-57
2022/02/21 18:39:59;;;;;;;10.90;1.77;;;17.50;66.50;;;;;;10417275;28;20029;-57
2022/02/21 18:45:00;;;;;;;9.27;2.58;;;17.60;66.30;;;;;;10399502;28;20033;-56
2022/02/21 18:50:01;;;;;;;7.80;2.08;;;17.70;65.80;;;;;;10412463;28;20033;-57
2022/02/21 18:55:01;;;;;;;7.70;1.92;;;17.70;65.80;;;;;;10399357;28;20112;-57
2022/02/21 19:00:04;;;;;;;10.20;2.60;;;17.70;65.70;;;;;;10401849;28;20033;-57
2022/02/21 19:05:06;;;;;;;6.97;1.58;;;17.70;65.70;;;;;;10414711;28;20427;-56
2022/02/21 19:10:07;;;;;;;9.27;2.00;;;17.60;65.90;;;;;;10400335;28;20029;-57
2022/02/21 19:15:08;;;;;;;8.23;1.80;;;17.70;66.00;;;;;;10409082;28;20033;-58
2022/02/21 19:20:10;;;;;;;5.55;1.52;;;17.70;66.20;;;;;;10410130;28;20401;-56
2022/02/21 19:25:11;;;;;;;5.65;1.55;;;17.70;66.40;;;;;;10408595;28;20497;-57
2022/02/21 19:30:13;;;;;;;4.43;1.10;;;17.80;66.10;;;;;;10409116;28;20044;-57
2022/02/21 19:35:14;;;;;;;5.57;1.42;;;17.80;66.10;;;;;;10429385;28;20452;-56
2022/02/21 19:40:15;;;;;;;5.90;1.40;;;17.80;65.70;;;;;;10409630;28;20086;-57
2022/02/21 19:45:18;;;;;;;4.57;1.67;;;17.90;65.40;;;;;;10402949;28;20045;-57
2022/02/21 19:50:19;;;;;;;7.28;1.92;;;17.80;65.70;;;;;;10407474;28;20021;-58
2022/02/21 19:55:21;;;;;;;7.28;1.60;;;17.70;66.00;;;;;;10413448;28;20025;-58
2022/02/21 20:00:22;;;;;;;4.90;1.70;;;17.70;66.10;;;;;;10410779;28;20040;-58
2022/02/21 20:05:23;;;;;;;4.78;1.08;;;17.80;65.50;;;;;;10415477;28;20030;-57
2022/02/21 20:10:25;;;;;;;5.97;1.65;;;17.70;65.30;;;;;;10404678;28;20037;-57
2022/02/21 20:15:25;;;;;;;3.97;1.60;;;17.70;65.30;;;;;;10421684;28;20025;-57
2022/02/21 20:20:27;;;;;;;3.05;1.25;;;17.70;65.10;;;;;;10432666;28;20554;-57
2022/02/21 20:25:29;;;;;;;4.18;1.73;;;17.80;64.80;;;;;;10416971;28;20033;-57
2022/02/21 20:30:31;;;;;;;4.88;1.38;;;17.70;64.70;;;;;;10416792;28;20052;-57
2022/02/21 20:35:35;;;;;;;6.07;1.65;;;17.80;64.50;;;;;;10425401;28;20033;-58
2022/02/21 20:40:36;;;;;;;3.67;1.15;;;17.80;64.40;;;;;;10418937;28;20657;-57
2022/02/21 20:45:37;;;;;;;5.70;1.10;;;17.80;64.50;;;;;;10413447;28;20076;-57
2022/02/21 20:50:37;;;;;;;6.30;1.77;;;17.80;64.30;;;;;;10414555;28;20028;-58
2022/02/21 20:55:39;;;;;;;3.67;1.02;;;17.80;64.30;;;;;;10418098;28;20029;-58
2022/02/21 21:00:39;;;;;;;2.75;0.90;;;17.80;64.20;;;;;;10403504;28;20530;-57
2022/02/21 21:05:40;;;;;;;5.90;1.50;;;17.80;64.10;;;;;;10415842;28;20046;-57
2022/02/21 21:10:50;;;;;;;3.05;1.23;;;17.70;64.20;;;;;;10417349;28;20030;-57
2022/02/21 21:15:51;;;;;;;3.13;1.33;;;17.80;64.00;;;;;;10415988;28;20037;-57
2022/02/21 21:20:52;;;;;;;3.80;1.05;;;17.70;64.00;;;;;;10415726;28;20045;-57
2022/02/21 21:25:53;;;;;;;3.90;1.30;;;17.70;64.00;;;;;;10416727;28;20039;-57
2022/02/21 21:30:54;;;;;;;6.30;1.33;;;17.70;63.90;;;;;;10415634;28;20025;-58
2022/02/21 21:35:56;;;;;;;2.85;1.42;;;17.70;63.90;;;;;;10415058;28;20359;-58
2022/02/21 21:40:57;;;;;;;2.95;1.40;;;17.80;63.80;;;;;;10431926;28;20052;-57
2022/02/21 21:45:58;;;;;;;5.60;1.65;;;17.70;63.80;;;;;;10407132;28;20363;-57
2022/02/21 21:50:58;;;;;;;3.95;2.13;;;17.80;63.70;;;;;;10427629;28;20025;-57
2022/02/21 21:55:59;;;;;;;4.90;1.38;;;17.70;63.70;;;;;;10409638;28;20485;-58
2022/02/21 22:01:01;;;;;;;3.95;1.20;;;17.80;63.70;;;;;;10401247;28;20036;-57
2022/02/21 22:06:02;;;;;;;6.75;1.10;;;17.80;63.60;;;;;;10424424;28;20104;-57
2022/02/21 22:11:04;;;;;;;6.63;1.45;;;17.70;63.60;;;;;;10430579;28;20104;-57
2022/02/21 22:16:05;;;;;;;2.03;0.85;;;17.80;63.60;;;;;;10413527;28;20029;-57
2022/02/21 22:21:06;;;;;;;3.83;1.23;;;17.70;63.70;;;;;;10413196;28;20470;-57
2022/02/21 22:26:07;;;;;;;3.75;0.90;;;17.70;63.60;;;;;;10413103;28;20112;-57
2022/02/21 22:31:08;;;;;;;2.72;1.10;;;17.70;63.60;;;;;;10416407;28;20091;-58
2022/02/21 22:36:08;;;;;;;2.85;1.00;;;17.70;63.60;;;;;;10419624;28;20566;-58
2022/02/21 22:41:09;;;;;;;2.97;0.80;;;17.70;63.50;;;;;;10412828;28;20079;-57
2022/02/21 22:46:11;;;;;;;3.28;1.00;;;17.80;63.40;;;;;;10390244;28;20030;-57
2022/02/21 22:51:11;;;;;;;5.25;1.58;;;17.80;63.30;;;;;;10412816;28;20026;-57
2022/02/21 22:56:12;;;;;;;2.88;0.70;;;17.80;63.00;;;;;;10412166;28;20068;-57
2022/02/21 23:01:16;;;;;;;3.13;0.90;;;17.90;63.10;;;;;;10413518;28;20120;-57
2022/02/21 23:06:17;;;;;;;2.90;0.80;;;17.90;63.10;;;;;;10413208;28;20069;-57
2022/02/21 23:11:18;;;;;;;2.63;0.90;;;17.90;62.90;;;;;;10410499;28;20090;-57
2022/02/21 23:16:18;;;;;;;6.03;1.25;;;17.90;63.00;;;;;;10413199;28;20121;-57
2022/02/21 23:21:19;;;;;;;2.53;0.98;;;17.90;63.00;;;;;;10428612;28;20041;-58
2022/02/21 23:26:20;;;;;;;3.47;1.13;;;17.90;63.00;;;;;;10412763;28;20112;-57
2022/02/21 23:31:21;;;;;;;2.42;1.30;;;17.80;63.00;;;;;;10417199;28;20033;-57
2022/02/21 23:36:21;;;;;;;3.25;1.35;;;17.90;63.00;;;;;;10410164;28;20136;-57
2022/02/21 23:41:22;;;;;;;1.75;0.52;;;17.90;62.80;;;;;;10421147;28;20028;-57
2022/02/21 23:46:29;;;;;;;3.33;1.27;;;17.90;62.90;;;;;;10394732;28;20034;-57
2022/02/21 23:51:31;;;;;;;2.95;0.80;;;17.90;62.80;;;;;;10420563;28;20071;-57
2022/02/21 23:56:31;;;;;;;4.43;1.10;;;17.90;62.80;;;;;;10397435;28;20091;-58
